sensor_id;sensor_type;location;lat;lon;timestamp;pressure;altitude;pressure_sealevel;temperature;humidity
50790;BME280;37287;47.554;7.844;2023-01-28T00:01:52;98264.09;;;-1.42;100.00
50790;BME280;37287;47.554;7.844;2023-01-28T00:04:18;98260.66;;;-1.43;100.00
50790;BME280;37287;47.554;7.844;2023-01-28T00:06:45;98257.72;;;-1.41;100.00
50790;BME280;37287;47.554;7.844;2023-01-28T00:09:12;98259.28;;;-1.40;100.00
50790;BME280;37287;47.554;7.844;2023-01-28T00:11:38;98253.72;;;-1.39;100.00
50790;BME280;37287;47.554;7.844;2023-01-28T00:14:09;98251.06;;;-1.39;100.00
50790;BME280;37287;47.554;7.844;2023-01-28T00:16:35;98252.41;;;-1.41;100.00
50790;BME280;37287;47.554;7.844;2023-01-28T00:19:02;98258.50;;;-1.41;100.00
50790;BME280;37287;47.554;7.844;2023-01-28T00:21:29;98259.28;;;-1.40;100.00
50790;BME280;37287;47.554;7.844;2023-01-28T00:23:56;98261.16;;;-1.41;100.00
50790;BME280;37287;47.554;7.844;2023-01-28T00:26:23;98255.06;;;-1.41;100.00
50790;BME280;37287;47.554;7.844;2023-01-28T00:28:52;98255.56;;;-1.39;100.00
50790;BME280;37287;47.554;7.844;2023-01-28T00:31:21;98254.47;;;-1.38;100.00
50790;BME280;37287;47.554;7.844;2023-01-28T00:33:49;98250.25;;;-1.39;100.00
50790;BME280;37287;47.554;7.844;2023-01-28T00:36:20;98254.78;;;-1.40;100.00
50790;BME280;37287;47.554;7.844;2023-01-28T00:38:55;98252.91;;;-1.39;100.00
50790;BME280;37287;47.554;7.844;2023-01-28T00:41:25;98256.84;;;-1.36;100.00
50790;BME280;37287;47.554;7.844;2023-01-28T00:43:53;98254.47;;;-1.38;100.00
50790;BME280;37287;47.554;7.844;2023-01-28T00:46:22;98257.16;;;-1.38;100.00
50790;BME280;37287;47.554;7.844;2023-01-28T00:48:55;98256.38;;;-1.39;100.00
50790;BME280;37287;47.554;7.844;2023-01-28T00:51:22;98250.25;;;-1.39;100.00
50790;BME280;37287;47.554;7.844;2023-01-28T00:53:48;98251.31;;;-1.40;100.00
50790;BME280;37287;47.554;7.844;2023-01-28T00:56:16;98247.09;;;-1.41;100.00
50790;BME280;37287;47.554;7.844;2023-01-28T00:58:44;98249.22;;;-1.43;100.00
50790;BME280;37287;47.554;7.844;2023-01-28T01:01:14;98258.78;;;-1.42;100.00
50790;BME280;37287;47.554;7.844;2023-01-28T01:03:43;98251.13;;;-1.44;100.00
50790;BME280;37287;47.554;7.844;2023-01-28T01:06:11;98247.69;;;-1.44;100.00
50790;BME280;37287;47.554;7.844;2023-01-28T01:08:41;98244.50;;;-1.46;100.00
50790;BME280;37287;47.554;7.844;2023-01-28T01:11:11;98250.88;;;-1.47;100.00
50790;BME280;37287;47.554;7.844;2023-01-28T01:13:37;98260.44;;;-1.46;100.00
50790;BME280;37287;47.554;7.844;2023-01-28T01:16:13;98253.25;;;-1.46;100.00
50790;BME280;37287;47.554;7.844;2023-01-28T01:18:43;98255.13;;;-1.46;100.00
50790;BME280;37287;47.554;7.844;2023-01-28T01:21:16;98262.03;;;-1.45;100.00
50790;BME280;37287;47.554;7.844;2023-01-28T01:23:47;98251.97;;;-1.48;100.00
50790;BME280;37287;47.554;7.844;2023-01-28T01:26:14;98259.44;;;-1.50;100.00
50790;BME280;37287;47.554;7.844;2023-01-28T01:28:52;98256.47;;;-1.49;100.00
50790;BME280;37287;47.554;7.844;2023-01-28T01:31:25;98254.94;;;-1.50;100.00
50790;BME280;37287;47.554;7.844;2023-01-28T01:33:52;98260.50;;;-1.51;100.00
50790;BME280;37287;47.554;7.844;2023-01-28T01:36:19;98261.59;;;-1.52;100.00
50790;BME280;37287;47.554;7.844;2023-01-28T01:38:52;98257.84;;;-1.51;100.00
50790;BME280;37287;47.554;7.844;2023-01-28T01:41:31;98262.09;;;-1.50;100.00
50790;BME280;37287;47.554;7.844;2023-01-28T01:44:05;98252.53;;;-1.51;100.00
50790;BME280;37287;47.554;7.844;2023-01-28T01:46:50;98257.84;;;-1.51;100.00
50790;BME280;37287;47.554;7.844;2023-01-28T01:49:25;98249.88;;;-1.51;100.00
50790;BME280;37287;47.554;7.844;2023-01-28T01:51:59;98247.22;;;-1.51;100.00
50790;BME280;37287;47.554;7.844;2023-01-28T01:54:32;98245.66;;;-1.52;100.00
50790;BME280;37287;47.554;7.844;2023-01-28T01:57:01;98251.75;;;-1.52;100.00
50790;BME280;37287;47.554;7.844;2023-01-28T01:59:32;98250.97;;;-1.52;100.00
50790;BME280;37287;47.554;7.844;2023-01-28T02:07:21;98256.28;;;-1.52;100.00
50790;BME280;37287;47.554;7.844;2023-01-28T02:09:50;98249.09;;;-1.52;100.00
50790;BME280;37287;47.554;7.844;2023-01-28T02:12:20;98258.94;;;-1.52;100.00
50790;BME280;37287;47.554;7.844;2023-01-28T02:14:58;98256.28;;;-1.52;100.00
50790;BME280;37287;47.554;7.844;2023-01-28T02:17:26;98258.41;;;-1.54;100.00
50790;BME280;37287;47.554;7.844;2023-01-28T02:19:57;98251.53;;;-1.56;100.00
50790;BME280;37287;47.554;7.844;2023-01-28T02:22:39;98256.81;;;-1.56;100.00
50790;BME280;37287;47.554;7.844;2023-01-28T02:25:24;98255.28;;;-1.57;100.00
50790;BME280;37287;47.554;7.844;2023-01-28T02:28:22;98257.94;;;-1.57;100.00
50790;BME280;37287;47.554;7.844;2023-01-28T02:31:07;98254.16;;;-1.56;100.00
50790;BME280;37287;47.554;7.844;2023-01-28T02:36:23;98268.53;;;-1.57;100.00
50790;BME280;37287;47.554;7.844;2023-01-28T02:38:54;98267.44;;;-1.56;100.00
50790;BME280;37287;47.554;7.844;2023-01-28T02:41:30;98266.66;;;-1.56;100.00
50790;BME280;37287;47.554;7.844;2023-01-28T02:44:00;98264.78;;;-1.56;100.00
50790;BME280;37287;47.554;7.844;2023-01-28T02:49:23;98266.09;;;-1.53;100.00
50790;BME280;37287;47.554;7.844;2023-01-28T02:54:53;98266.91;;;-1.52;100.00
50790;BME280;37287;47.554;7.844;2023-01-28T02:57:33;98271.63;;;-1.49;100.00
50790;BME280;37287;47.554;7.844;2023-01-28T03:00:11;98260.72;;;-1.48;100.00
50790;BME280;37287;47.554;7.844;2023-01-28T03:02:51;98261.00;;;-1.49;100.00
50790;BME280;37287;47.554;7.844;2023-01-28T03:05:26;98262.59;;;-1.48;100.00
50790;BME280;37287;47.554;7.844;2023-01-28T03:07:59;98269.47;;;-1.47;100.00
50790;BME280;37287;47.554;7.844;2023-01-28T03:10:49;98270.56;;;-1.48;100.00
50790;BME280;37287;47.554;7.844;2023-01-28T03:13:37;98269.47;;;-1.47;100.00
50790;BME280;37287;47.554;7.844;2023-01-28T03:16:23;98270.00;;;-1.45;100.00
50790;BME280;37287;47.554;7.844;2023-01-28T03:19:09;98276.88;;;-1.44;100.00
50790;BME280;37287;47.554;7.844;2023-01-28T03:21:55;98263.09;;;-1.46;100.00
50790;BME280;37287;47.554;7.844;2023-01-28T03:24:47;98271.06;;;-1.46;100.00
50790;BME280;37287;47.554;7.844;2023-01-28T03:30:27;98271.34;;;-1.48;100.00
50790;BME280;37287;47.554;7.844;2023-01-28T03:33:15;98270.56;;;-1.48;100.00
50790;BME280;37287;47.554;7.844;2023-01-28T03:36:05;98267.38;;;-1.50;100.00
50790;BME280;37287;47.554;7.844;2023-01-28T03:38:50;98270.56;;;-1.48;100.00
50790;BME280;37287;47.554;7.844;2023-01-28T03:41:23;98269.47;;;-1.47;100.00
50790;BME280;37287;47.554;7.844;2023-01-28T03:43:51;98275.88;;;-1.48;100.00
50790;BME280;37287;47.554;7.844;2023-01-28T03:46:19;98276.94;;;-1.49;100.00
50790;BME280;37287;47.554;7.844;2023-01-28T03:48:45;98276.16;;;-1.50;100.00
50790;BME280;37287;47.554;7.844;2023-01-28T03:51:12;98282.53;;;-1.51;100.00
50790;BME280;37287;47.554;7.844;2023-01-28T03:53:45;98281.72;;;-1.51;100.00
50790;BME280;37287;47.554;7.844;2023-01-28T03:56:11;98282.25;;;-1.49;100.00
50790;BME280;37287;47.554;7.844;2023-01-28T03:58:43;98283.84;;;-1.48;100.00
50790;BME280;37287;47.554;7.844;2023-01-28T04:01:21;98280.66;;;-1.50;100.00
50790;BME280;37287;47.554;7.844;2023-01-28T04:03:48;98284.41;;;-1.51;100.00
50790;BME280;37287;47.554;7.844;2023-01-28T04:06:15;98284.97;;;-1.54;100.00
50790;BME280;37287;47.554;7.844;2023-01-28T04:08:41;98281.25;;;-1.53;100.00
50790;BME280;37287;47.554;7.844;2023-01-28T04:11:13;98281.25;;;-1.53;100.00
50790;BME280;37287;47.554;7.844;2023-01-28T04:13:45;98287.34;;;-1.53;100.00
50790;BME280;37287;47.554;7.844;2023-01-28T04:16:14;98290.00;;;-1.53;100.00
50790;BME280;37287;47.554;7.844;2023-01-28T04:18:42;98291.59;;;-1.52;100.00
50790;BME280;37287;47.554;7.844;2023-01-28T04:21:11;98285.50;;;-1.52;100.00
50790;BME280;37287;47.554;7.844;2023-01-28T04:23:38;98287.34;;;-1.53;100.00
50790;BME280;37287;47.554;7.844;2023-01-28T04:26:04;98289.69;;;-1.51;100.00
50790;BME280;37287;47.554;7.844;2023-01-28T04:28:31;98291.88;;;-1.53;100.00
50790;BME280;37287;47.554;7.844;2023-01-28T04:30:57;98295.59;;;-1.54;100.00
50790;BME280;37287;47.554;7.844;2023-01-28T04:33:24;98292.44;;;-1.57;100.00
50790;BME280;37287;47.554;7.844;2023-01-28T04:35:52;98300.91;;;-1.54;100.00
50790;BME280;37287;47.554;7.844;2023-01-28T04:38:19;98301.97;;;-1.56;100.00
50790;BME280;37287;47.554;7.844;2023-01-28T04:40:53;98301.19;;;-1.56;100.00
50790;BME280;37287;47.554;7.844;2023-01-28T04:43:23;98303.06;;;-1.57;100.00
50790;BME280;37287;47.554;7.844;2023-01-28T04:45:51;98303.06;;;-1.57;100.00
50790;BME280;37287;47.554;7.844;2023-01-28T04:48:18;98301.19;;;-1.56;100.00
50790;BME280;37287;47.554;7.844;2023-01-28T04:50:46;98296.94;;;-1.57;100.00
50790;BME280;37287;47.554;7.844;2023-01-28T04:53:13;98300.69;;;-1.58;100.00
50790;BME280;37287;47.554;7.844;2023-01-28T04:55:39;98302.53;;;-1.59;100.00
50790;BME280;37287;47.554;7.844;2023-01-28T04:58:06;98299.88;;;-1.59;100.00
50790;BME280;37287;47.554;7.844;2023-01-28T05:00:33;98301.75;;;-1.59;100.00
50790;BME280;37287;47.554;7.844;2023-01-28T05:02:59;98302.53;;;-1.59;100.00
50790;BME280;37287;47.554;7.844;2023-01-28T05:05:26;98304.13;;;-1.58;100.00
50790;BME280;37287;47.554;7.844;2023-01-28T05:07:54;98308.38;;;-1.57;100.00
50790;BME280;37287;47.554;7.844;2023-01-28T05:10:22;98320.06;;;-1.58;100.00
50790;BME280;37287;47.554;7.844;2023-01-28T05:12:49;98321.13;;;-1.59;100.00
50790;BME280;37287;47.554;7.844;2023-01-28T05:15:19;98320.06;;;-1.58;100.00
50790;BME280;37287;47.554;7.844;2023-01-28T05:17:46;98321.13;;;-1.59;100.00
50790;BME280;37287;47.554;7.844;2023-01-28T05:20:14;98321.13;;;-1.59;100.00
50790;BME280;37287;47.554;7.844;2023-01-28T05:22:41;98326.97;;;-1.57;100.00
50790;BME280;37287;47.554;7.844;2023-01-28T05:25:10;98328.53;;;-1.56;100.00
50790;BME280;37287;47.554;7.844;2023-01-28T05:27:41;98329.03;;;-1.53;100.00
50790;BME280;37287;47.554;7.844;2023-01-28T05:30:08;98330.09;;;-1.54;100.00
50790;BME280;37287;47.554;7.844;2023-01-28T05:32:35;98337.28;;;-1.55;100.00
50790;BME280;37287;47.554;7.844;2023-01-28T05:35:02;98338.06;;;-1.54;100.00
50790;BME280;37287;47.554;7.844;2023-01-28T05:37:29;98337.28;;;-1.55;100.00
50790;BME280;37287;47.554;7.844;2023-01-28T05:39:55;98341.78;;;-1.56;100.00
50790;BME280;37287;47.554;7.844;2023-01-28T05:42:22;98333.28;;;-1.52;100.00
50790;BME280;37287;47.554;7.844;2023-01-28T05:44:48;98328.47;;;-1.50;100.00
50790;BME280;37287;47.554;7.844;2023-01-28T05:47:17;98334.06;;;-1.52;100.00
50790;BME280;37287;47.554;7.844;2023-01-28T05:49:46;98337.78;;;-1.53;100.00
50790;BME280;37287;47.554;7.844;2023-01-28T05:52:12;98339.09;;;-1.50;100.00
50790;BME280;37287;47.554;7.844;2023-01-28T05:54:39;98339.09;;;-1.50;100.00
50790;BME280;37287;47.554;7.844;2023-01-28T05:57:07;98332.19;;;-1.51;100.00
50790;BME280;37287;47.554;7.844;2023-01-28T05:59:34;98339.09;;;-1.50;100.00
50790;BME280;37287;47.554;7.844;2023-01-28T06:02:00;98339.09;;;-1.50;100.00
50790;BME280;37287;47.554;7.844;2023-01-28T06:04:29;98340.69;;;-1.49;100.00
50790;BME280;37287;47.554;7.844;2023-01-28T06:06:56;98340.97;;;-1.51;100.00
50790;BME280;37287;47.554;7.844;2023-01-28T06:09:22;98342.81;;;-1.51;100.00
50790;BME280;37287;47.554;7.844;2023-01-28T06:11:53;98335.94;;;-1.52;100.00
50790;BME280;37287;47.554;7.844;2023-01-28T06:14:20;98341.75;;;-1.50;100.00
50790;BME280;37287;47.554;7.844;2023-01-28T06:16:46;98353.44;;;-1.51;100.00
50790;BME280;37287;47.554;7.844;2023-01-28T06:19:13;98352.09;;;-1.49;100.00
50790;BME280;37287;47.554;7.844;2023-01-28T06:21:40;98354.72;;;-1.49;100.00
50790;BME280;37287;47.554;7.844;2023-01-28T06:24:08;98354.44;;;-1.47;100.00
50790;BME280;37287;47.554;7.844;2023-01-28T06:26:35;98356.63;;;-1.49;100.00
50790;BME280;37287;47.554;7.844;2023-01-28T06:29:01;98355.03;;;-1.50;100.00
50790;BME280;37287;47.554;7.844;2023-01-28T06:31:28;98365.06;;;-1.47;100.00
50790;BME280;37287;47.554;7.844;2023-01-28T06:34:01;98365.06;;;-1.47;100.00
50790;BME280;37287;47.554;7.844;2023-01-28T06:36:28;98364.28;;;-1.48;100.00
50790;BME280;37287;47.554;7.844;2023-01-28T06:38:55;98367.53;;;-1.51;100.00
50790;BME280;37287;47.554;7.844;2023-01-28T06:41:21;98378.63;;;-1.49;100.00
50790;BME280;37287;47.554;7.844;2023-01-28T06:43:48;98370.19;;;-1.51;100.00
50790;BME280;37287;47.554;7.844;2023-01-28T06:46:15;98376.28;;;-1.50;100.00
50790;BME280;37287;47.554;7.844;2023-01-28T06:48:43;98379.44;;;-1.48;100.00
50790;BME280;37287;47.554;7.844;2023-01-28T06:51:10;98382.88;;;-1.48;100.00
50790;BME280;37287;47.554;7.844;2023-01-28T06:53:36;98380.22;;;-1.48;100.00
50790;BME280;37287;47.554;7.844;2023-01-28T06:56:05;98374.91;;;-1.48;100.00
50790;BME280;37287;47.554;7.844;2023-01-28T06:58:32;98382.88;;;-1.48;100.00
50790;BME280;37287;47.554;7.844;2023-01-28T07:00:59;98377.06;;;-1.50;100.00
50790;BME280;37287;47.554;7.844;2023-01-28T07:03:28;98377.84;;;-1.49;100.00
50790;BME280;37287;47.554;7.844;2023-01-28T07:05:54;98391.63;;;-1.47;100.00
50790;BME280;37287;47.554;7.844;2023-01-28T07:08:21;98396.94;;;-1.47;100.00
50790;BME280;37287;47.554;7.844;2023-01-28T07:10:47;98396.94;;;-1.47;100.00
50790;BME280;37287;47.554;7.844;2023-01-28T07:13:14;98390.56;;;-1.46;100.00
50790;BME280;37287;47.554;7.844;2023-01-28T07:15:41;98391.63;;;-1.47;100.00
50790;BME280;37287;47.554;7.844;2023-01-28T07:18:08;98395.09;;;-1.47;100.00
50790;BME280;37287;47.554;7.844;2023-01-28T07:20:34;98394.81;;;-1.45;100.00
50790;BME280;37287;47.554;7.844;2023-01-28T07:23:01;98394.81;;;-1.45;100.00
50790;BME280;37287;47.554;7.844;2023-01-28T07:25:27;98397.19;;;-1.44;100.00
50790;BME280;37287;47.554;7.844;2023-01-28T07:27:54;98405.94;;;-1.43;100.00
50790;BME280;37287;47.554;7.844;2023-01-28T07:30:22;98402.19;;;-1.42;100.00
50790;BME280;37287;47.554;7.844;2023-01-28T07:32:57;98399.06;;;-1.44;100.00
50790;BME280;37287;47.554;7.844;2023-01-28T07:35:24;98397.97;;;-1.43;100.00
50790;BME280;37287;47.554;7.844;2023-01-28T07:37:53;98400.63;;;-1.43;100.00
50790;BME280;37287;47.554;7.844;2023-01-28T07:40:22;98402.50;;;-1.44;100.00
50790;BME280;37287;47.554;7.844;2023-01-28T07:42:52;98409.41;;;-1.43;100.00
50790;BME280;37287;47.554;7.844;2023-01-28T07:45:21;98409.09;;;-1.41;100.00
50790;BME280;37287;47.554;7.844;2023-01-28T07:47:54;98408.81;;;-1.40;100.00
50790;BME280;37287;47.554;7.844;2023-01-28T07:50:21;98407.47;;;-1.37;100.00
50790;BME280;37287;47.554;7.844;2023-01-28T07:52:47;98417.00;;;-1.36;100.00
50790;BME280;37287;47.554;7.844;2023-01-28T07:55:14;98409.84;;;-1.35;100.00
50790;BME280;37287;47.554;7.844;2023-01-28T07:57:51;98413.00;;;-1.33;100.00
50790;BME280;37287;47.554;7.844;2023-01-28T08:00:21;98415.88;;;-1.30;100.00
50790;BME280;37287;47.554;7.844;2023-01-28T08:02:54;98422.22;;;-1.26;100.00
50790;BME280;37287;47.554;7.844;2023-01-28T08:05:20;98417.97;;;-1.27;100.00
50790;BME280;37287;47.554;7.844;2023-01-28T08:07:49;98419.56;;;-1.26;100.00
50790;BME280;37287;47.554;7.844;2023-01-28T08:10:17;98427.25;;;-1.24;100.00
50790;BME280;37287;47.554;7.844;2023-01-28T08:12:57;98428.59;;;-1.27;100.00
50790;BME280;37287;47.554;7.844;2023-01-28T08:15:41;98437.06;;;-1.25;100.00
50790;BME280;37287;47.554;7.844;2023-01-28T08:18:13;98430.19;;;-1.26;100.00
50790;BME280;37287;47.554;7.844;2023-01-28T08:20:40;98440.25;;;-1.23;100.00
50790;BME280;37287;47.554;7.844;2023-01-28T08:23:18;98442.59;;;-1.21;100.00
50790;BME280;37287;47.554;7.844;2023-01-28T08:25:49;98431.41;;;-1.18;100.00
50790;BME280;37287;47.554;7.844;2023-01-28T08:28:16;98441.47;;;-1.15;100.00
50790;BME280;37287;47.554;7.844;2023-01-28T08:30:43;98445.41;;;-1.12;100.00
50790;BME280;37287;47.554;7.844;2023-01-28T08:33:11;98451.75;;;-1.08;100.00
50790;BME280;37287;47.554;7.844;2023-01-28T08:35:39;98448.81;;;-1.07;100.00
50790;BME280;37287;47.554;7.844;2023-01-28T08:38:07;98454.84;;;-1.01;100.00
50790;BME280;37287;47.554;7.844;2023-01-28T08:43:02;98460.03;;;-0.91;100.00
50790;BME280;37287;47.554;7.844;2023-01-28T08:45:29;98471.69;;;-0.87;100.00
50790;BME280;37287;47.554;7.844;2023-01-28T08:48:03;98472.50;;;-0.86;100.00
50790;BME280;37287;47.554;7.844;2023-01-28T08:50:34;98479.59;;;-0.81;100.00
50790;BME280;37287;47.554;7.844;2023-01-28T08:53:03;98477.44;;;-0.79;100.00
50790;BME280;37287;47.554;7.844;2023-01-28T08:55:32;98474.22;;;-0.76;100.00
50790;BME280;37287;47.554;7.844;2023-01-28T08:58:03;98480.56;;;-0.72;100.00
50790;BME280;37287;47.554;7.844;2023-01-28T09:00:30;98475.44;;;-0.68;100.00
50790;BME280;37287;47.554;7.844;2023-01-28T09:02:56;98482.06;;;-0.66;100.00
50790;BME280;37287;47.554;7.844;2023-01-28T09:05:25;98479.91;;;-0.64;100.00
50790;BME280;37287;47.554;7.844;2023-01-28T09:07:52;98483.88;;;-0.61;100.00
50790;BME280;37287;47.554;7.844;2023-01-28T09:10:18;98480.13;;;-0.60;100.00
50790;BME280;37287;47.554;7.844;2023-01-28T09:12:48;98480.34;;;-0.57;100.00
50790;BME280;37287;47.554;7.844;2023-01-28T09:15:14;98482.72;;;-0.55;100.00
50790;BME280;37287;47.554;7.844;2023-01-28T09:17:44;98478.69;;;-0.53;100.00
50790;BME280;37287;47.554;7.844;2023-01-28T09:20:11;98480.78;;;-0.49;100.00
50790;BME280;37287;47.554;7.844;2023-01-28T09:22:38;98488.19;;;-0.46;100.00
50790;BME280;37287;47.554;7.844;2023-01-28T09:25:05;98477.28;;;-0.45;100.00
50790;BME280;37287;47.554;7.844;2023-01-28T09:27:33;98482.00;;;-0.42;100.00
50790;BME280;37287;47.554;7.844;2023-01-28T09:29:59;98482.50;;;-0.40;100.00
50790;BME280;37287;47.554;7.844;2023-01-28T09:32:32;98483.72;;;-0.32;100.00
50790;BME280;37287;47.554;7.844;2023-01-28T09:34:59;98482.84;;;-0.27;100.00
50790;BME280;37287;47.554;7.844;2023-01-28T09:37:25;98478.84;;;-0.25;100.00
50790;BME280;37287;47.554;7.844;2023-01-28T09:39:52;98479.31;;;-0.23;100.00
50790;BME280;37287;47.554;7.844;2023-01-28T09:45:41;98490.69;;;-0.17;100.00
50790;BME280;37287;47.554;7.844;2023-01-28T09:48:13;98487.25;;;-0.18;100.00
50790;BME280;37287;47.554;7.844;2023-01-28T09:50:49;98492.28;;;-0.16;100.00
50790;BME280;37287;47.554;7.844;2023-01-28T09:53:32;98489.63;;;-0.16;99.87
50790;BME280;37287;47.554;7.844;2023-01-28T09:56:12;98490.31;;;-0.10;100.00
50790;BME280;37287;47.554;7.844;2023-01-28T09:58:41;98491.91;;;-0.09;100.00
50790;BME280;37287;47.554;7.844;2023-01-28T10:04:05;98495.06;;;-0.07;98.56
50790;BME280;37287;47.554;7.844;2023-01-28T10:09:48;98490.75;;;-0.03;95.82
50790;BME280;37287;47.554;7.844;2023-01-28T10:12:38;98485.94;;;-0.01;96.00
50790;BME280;37287;47.554;7.844;2023-01-28T10:15:21;98488.44;;;0.09;96.42
50790;BME280;37287;47.554;7.844;2023-01-28T10:17:56;98488.25;;;0.20;97.28
50790;BME280;37287;47.554;7.844;2023-01-28T10:20:54;98496.59;;;0.32;96.44
50790;BME280;37287;47.554;7.844;2023-01-28T10:23:24;98476.56;;;0.34;94.90
50790;BME280;37287;47.554;7.844;2023-01-28T10:25:55;98489.09;;;0.34;95.27
50790;BME280;37287;47.554;7.844;2023-01-28T10:28:28;98479.81;;;0.31;94.69
50790;BME280;37287;47.554;7.844;2023-01-28T10:30:55;98489.09;;;0.34;94.92
50790;BME280;37287;47.554;7.844;2023-01-28T10:33:23;98495.31;;;0.43;95.39
50790;BME280;37287;47.554;7.844;2023-01-28T10:35:55;98491.47;;;0.49;95.22
50790;BME280;37287;47.554;7.844;2023-01-28T10:38:23;98488.56;;;0.51;94.13
50790;BME280;37287;47.554;7.844;2023-01-28T10:40:54;98496.44;;;0.56;93.89
50790;BME280;37287;47.554;7.844;2023-01-28T10:43:29;98489.13;;;0.62;92.50
50790;BME280;37287;47.554;7.844;2023-01-28T10:48:32;98488.13;;;0.58;90.06
50790;BME280;37287;47.554;7.844;2023-01-28T10:51:03;98488.66;;;0.60;90.58
50790;BME280;37287;47.554;7.844;2023-01-28T10:53:40;98499.19;;;0.65;91.20
50790;BME280;37287;47.554;7.844;2023-01-28T10:56:15;98486.47;;;0.62;90.44
50790;BME280;37287;47.554;7.844;2023-01-28T10:58:53;98486.19;;;0.63;89.70
50790;BME280;37287;47.554;7.844;2023-01-28T11:01:51;98481.66;;;0.64;89.15
50790;BME280;37287;47.554;7.844;2023-01-28T11:04:23;98477.09;;;0.64;89.26
50790;BME280;37287;47.554;7.844;2023-01-28T11:07:00;98475.13;;;0.70;88.96
50790;BME280;37287;47.554;7.844;2023-01-28T11:09:28;98465.47;;;0.74;88.13
50790;BME280;37287;47.554;7.844;2023-01-28T11:12:09;98465.78;;;0.87;88.30
50790;BME280;37287;47.554;7.844;2023-01-28T11:14:36;98460.69;;;1.27;88.28
50790;BME280;37287;47.554;7.844;2023-01-28T11:17:11;98460.59;;;1.32;85.93
50790;BME280;37287;47.554;7.844;2023-01-28T11:19:41;98454.97;;;1.19;84.15
50790;BME280;37287;47.554;7.844;2023-01-28T11:22:32;98448.66;;;1.15;82.97
50790;BME280;37287;47.554;7.844;2023-01-28T11:27:51;98452.41;;;1.14;81.15
50790;BME280;37287;47.554;7.844;2023-01-28T11:30:29;98454.59;;;1.12;80.28
50790;BME280;37287;47.554;7.844;2023-01-28T11:33:13;98463.66;;;1.25;81.70
50790;BME280;37287;47.554;7.844;2023-01-28T11:35:40;98466.91;;;1.36;81.94
50790;BME280;37287;47.554;7.844;2023-01-28T11:38:18;98464.25;;;1.36;79.61
50790;BME280;37287;47.554;7.844;2023-01-28T11:40:49;98461.94;;;1.43;82.46
50790;BME280;37287;47.554;7.844;2023-01-28T11:43:21;98465.22;;;1.40;82.26
50790;BME280;37287;47.554;7.844;2023-01-28T12:02:46;98459.69;;;1.36;77.66
50790;BME280;37287;47.554;7.844;2023-01-28T12:08:41;98463.06;;;1.28;77.41
50790;BME280;37287;47.554;7.844;2023-01-28T12:11:29;98466.03;;;1.27;78.79
50790;BME280;37287;47.554;7.844;2023-01-28T12:14:49;98461.88;;;1.20;77.37
50790;BME280;37287;47.554;7.844;2023-01-28T12:17:42;98466.31;;;1.25;79.71
50790;BME280;37287;47.554;7.844;2023-01-28T12:20:28;98457.53;;;1.25;80.17
50790;BME280;37287;47.554;7.844;2023-01-28T12:31:07;98455.56;;;1.16;77.80
50790;BME280;37287;47.554;7.844;2023-01-28T12:33:57;98450.72;;;1.18;79.37
50790;BME280;37287;47.554;7.844;2023-01-28T12:39:51;98461.69;;;1.17;80.43
50790;BME280;37287;47.554;7.844;2023-01-28T12:42:35;98462.75;;;1.16;80.97
50790;BME280;37287;47.554;7.844;2023-01-28T12:45:16;98461.50;;;1.13;79.58
50790;BME280;37287;47.554;7.844;2023-01-28T12:47:56;98462.00;;;1.15;80.99
50790;BME280;37287;47.554;7.844;2023-01-28T12:50:31;98472.66;;;1.15;81.91
50790;BME280;37287;47.554;7.844;2023-01-28T12:53:20;98465.34;;;1.21;81.03
50790;BME280;37287;47.554;7.844;2023-01-28T12:55:59;98463.56;;;1.30;79.46
50790;BME280;37287;47.554;7.844;2023-01-28T12:59:09;98462.03;;;1.38;79.78
50790;BME280;37287;47.554;7.844;2023-01-28T13:04:20;98465.78;;;1.37;79.90
50790;BME280;37287;47.554;7.844;2023-01-28T13:06:54;98467.69;;;1.36;79.74
50790;BME280;37287;47.554;7.844;2023-01-28T13:09:25;98460.47;;;1.37;80.62
50790;BME280;37287;47.554;7.844;2023-01-28T13:11:56;98469.56;;;1.36;80.20
50790;BME280;37287;47.554;7.844;2023-01-28T13:14:33;98468.75;;;1.35;80.85
50790;BME280;37287;47.554;7.844;2023-01-28T13:17:24;98465.31;;;1.35;81.08
50790;BME280;37287;47.554;7.844;2023-01-28T13:19:51;98468.47;;;1.37;81.57
50790;BME280;37287;47.554;7.844;2023-01-28T13:22:33;98472.81;;;1.33;80.21
50790;BME280;37287;47.554;7.844;2023-01-28T13:25:24;98476.28;;;1.33;81.22
50790;BME280;37287;47.554;7.844;2023-01-28T13:27:58;98471.75;;;1.34;80.59
50790;BME280;37287;47.554;7.844;2023-01-28T13:30:29;98478.97;;;1.33;81.27
50790;BME280;37287;47.554;7.844;2023-01-28T13:33:03;98471.56;;;1.30;81.59
50790;BME280;37287;47.554;7.844;2023-01-28T13:38:06;98483.63;;;1.28;82.40
50790;BME280;37287;47.554;7.844;2023-01-28T13:40:33;98474.53;;;1.29;83.15
50790;BME280;37287;47.554;7.844;2023-01-28T13:43:23;98494.88;;;1.25;81.24
50790;BME280;37287;47.554;7.844;2023-01-28T13:46:01;98494.06;;;1.24;81.52
50790;BME280;37287;47.554;7.844;2023-01-28T13:48:49;98497.03;;;1.23;81.13
50790;BME280;37287;47.554;7.844;2023-01-28T13:51:23;98497.84;;;1.23;81.71
50790;BME280;37287;47.554;7.844;2023-01-28T13:54:15;98509.91;;;1.20;81.57
50790;BME280;37287;47.554;7.844;2023-01-28T13:57:04;98502.00;;;1.15;79.46
50790;BME280;37287;47.554;7.844;2023-01-28T14:08:42;98508.72;;;1.13;81.72
50790;BME280;37287;47.554;7.844;2023-01-28T14:11:31;98502.97;;;1.06;78.07
50790;BME280;37287;47.554;7.844;2023-01-28T14:17:02;98516.22;;;0.97;78.26
50790;BME280;37287;47.554;7.844;2023-01-28T14:19:36;98517.41;;;0.91;78.24
50790;BME280;37287;47.554;7.844;2023-01-28T14:22:07;98517.50;;;0.85;77.82
50790;BME280;37287;47.554;7.844;2023-01-28T14:24:36;98520.38;;;0.89;79.75
50790;BME280;37287;47.554;7.844;2023-01-28T14:27:23;98526.28;;;0.86;80.15
50790;BME280;37287;47.554;7.844;2023-01-28T14:30:09;98519.47;;;0.80;78.88
50790;BME280;37287;47.554;7.844;2023-01-28T14:32:45;98525.88;;;0.79;79.05
50790;BME280;37287;47.554;7.844;2023-01-28T14:35:27;98524.59;;;0.76;78.96
50790;BME280;37287;47.554;7.844;2023-01-28T14:37:56;98532.88;;;0.75;79.78
50790;BME280;37287;47.554;7.844;2023-01-28T14:40:27;98527.06;;;0.73;80.45
50790;BME280;37287;47.554;7.844;2023-01-28T14:42:54;98534.75;;;0.74;80.76
50790;BME280;37287;47.554;7.844;2023-01-28T14:50:59;98548.78;;;0.80;81.87